Time;durP1;ratioP1;P1;durP2;ratioP2;P2;SDS_P1;SDS_P2;PMS_P1;PMS_P2;Temp;Humidity;BMP_temperature;BMP_pressure;BME280_temperature;BME280_humidity;BME280_pressure;Samples;Min_cycle;Max_cycle;Signal;HPM_P1;HPM_P2
2023/04/23 00:01:51;;;;;;;9.18;5.28;;;;;;;;;;4995365;28;20034;-83
2023/04/23 00:04:18;;;;;;;7.60;5.38;;;;;;;;;;4978583;28;20457;-83
2023/04/23 00:06:45;;;;;;;8.55;5.75;;;;;;;;;;4988460;28;20042;-82
2023/04/23 00:09:12;;;;;;;12.60;6.00;;;;;;;;;;4994861;28;20041;-83
2023/04/23 00:11:38;;;;;;;9.63;5.70;;;;;;;;;;4981902;28;20037;-82
2023/04/23 00:14:04;;;;;;;7.57;5.45;;;;;;;;;;4994548;28;20593;-82
2023/04/23 00:16:29;;;;;;;11.20;5.97;;;;;;;;;;4989006;28;20053;-83
2023/04/23 00:18:55;;;;;;;8.82;5.88;;;;;;;;;;4990852;28;21437;-84
2023/04/23 00:21:22;;;;;;;8.82;5.82;;;;;;;;;;4990469;28;20524;-84
2023/04/23 00:23:48;;;;;;;9.38;6.15;;;;;;;;;;5001953;28;20045;-82
2023/04/23 00:26:13;;;;;;;8.43;5.97;;;;;;;;;;4992447;28;20040;-82
2023/04/23 00:28:39;;;;;;;9.07;5.88;;;;;;;;;;5004027;28;20049;-82
2023/04/23 00:31:04;;;;;;;8.05;6.10;;;;;;;;;;4989754;28;20038;-83
2023/04/23 00:33:29;;;;;;;9.00;5.60;;;;;;;;;;4989548;28;20605;-83
2023/04/23 00:35:55;;;;;;;8.27;5.40;;;;;;;;;;4971072;28;20484;-83
2023/04/23 00:38:20;;;;;;;8.82;5.85;;;;;;;;;;4991823;28;20045;-83
2023/04/23 00:40:46;;;;;;;9.15;5.47;;;;;;;;;;4991568;28;20043;-83
2023/04/23 00:43:12;;;;;;;8.82;5.65;;;;;;;;;;4989890;28;20046;-83
2023/04/23 00:45:37;;;;;;;9.13;5.22;;;;;;;;;;4990857;28;20099;-83
2023/04/23 00:48:03;;;;;;;9.32;6.05;;;;;;;;;;4990957;28;20491;-84
2023/04/23 00:50:28;;;;;;;8.15;5.40;;;;;;;;;;4990011;28;20032;-84
2023/04/23 00:52:54;;;;;;;9.73;5.88;;;;;;;;;;4990662;28;20091;-83
2023/04/23 00:55:22;;;;;;;9.75;5.72;;;;;;;;;;4990457;28;20069;-82
2023/04/23 00:57:47;;;;;;;8.52;5.63;;;;;;;;;;4991038;28;20026;-83
2023/04/23 01:00:13;;;;;;;8.05;5.25;;;;;;;;;;4989955;28;20045;-82
2023/04/23 01:02:41;;;;;;;9.57;5.50;;;;;;;;;;4990915;28;20080;-83
2023/04/23 01:05:07;;;;;;;11.85;5.97;;;;;;;;;;4995492;28;20490;-84
2023/04/23 01:07:33;;;;;;;8.52;5.72;;;;;;;;;;4996715;28;20049;-83
2023/04/23 01:09:59;;;;;;;8.60;5.38;;;;;;;;;;4976656;28;20034;-84
2023/04/23 01:12:25;;;;;;;8.13;5.35;;;;;;;;;;4985710;28;20414;-84
2023/04/23 01:14:51;;;;;;;8.77;5.65;;;;;;;;;;4993617;28;20343;-84
2023/04/23 01:17:16;;;;;;;10.68;6.00;;;;;;;;;;4996331;28;20038;-84
2023/04/23 01:19:42;;;;;;;9.98;6.05;;;;;;;;;;5004548;28;20038;-83
2023/04/23 01:22:09;;;;;;;8.95;6.18;;;;;;;;;;5016391;28;20037;-84
2023/04/23 01:24:35;;;;;;;8.75;5.90;;;;;;;;;;5008185;28;20576;-83
2023/04/23 01:27:01;;;;;;;10.50;6.45;;;;;;;;;;4997167;28;20394;-82
2023/04/23 01:29:26;;;;;;;10.85;6.50;;;;;;;;;;4999886;28;20053;-83
2023/04/23 01:31:52;;;;;;;9.52;6.22;;;;;;;;;;4983802;28;20034;-83
2023/04/23 01:34:18;;;;;;;10.27;6.60;;;;;;;;;;4997382;28;20452;-83
2023/04/23 01:36:44;;;;;;;8.40;5.78;;;;;;;;;;5016343;28;20038;-83
2023/04/23 01:39:09;;;;;;;11.35;6.50;;;;;;;;;;4998193;28;20030;-81
2023/04/23 01:41:36;;;;;;;10.60;6.35;;;;;;;;;;5014753;28;20512;-82
2023/04/23 01:44:01;;;;;;;10.32;5.97;;;;;;;;;;4987965;28;20452;-84
2023/04/23 01:46:27;;;;;;;9.52;6.22;;;;;;;;;;5014754;28;20045;-83
2023/04/23 01:48:52;;;;;;;9.30;6.53;;;;;;;;;;5005767;28;20429;-83
2023/04/23 01:51:18;;;;;;;8.98;6.05;;;;;;;;;;5013372;28;20068;-83
2023/04/23 01:53:43;;;;;;;9.95;6.90;;;;;;;;;;5013466;28;20417;-83
2023/04/23 01:56:09;;;;;;;9.43;6.68;;;;;;;;;;4998746;28;20073;-83
2023/04/23 01:58:35;;;;;;;10.32;7.20;;;;;;;;;;5006637;28;20330;-83
2023/04/23 02:01:00;;;;;;;12.98;7.90;;;;;;;;;;5011086;28;20089;-85
2023/04/23 02:03:28;;;;;;;13.55;7.68;;;;;;;;;;4997889;28;20042;-84
2023/04/23 02:05:54;;;;;;;11.15;7.80;;;;;;;;;;5005215;28;20041;-84
2023/04/23 02:08:19;;;;;;;12.40;7.80;;;;;;;;;;5000078;28;20411;-84
2023/04/23 02:10:45;;;;;;;13.80;8.85;;;;;;;;;;4997027;28;20714;-83
2023/04/23 02:13:10;;;;;;;12.98;9.25;;;;;;;;;;4996492;28;20126;-83
2023/04/23 02:18:53;;;;;;;;;;;;;;;;;;5012937;28;20045;-84
2023/04/23 02:21:18;;;;;;;14.32;8.80;;;;;;;;;;5012552;28;19917;-84
2023/04/23 02:23:44;;;;;;;12.73;8.77;;;;;;;;;;5013369;28;20038;-84
2023/04/23 02:26:09;;;;;;;11.80;8.40;;;;;;;;;;4999871;28;20042;-85
2023/04/23 02:28:35;;;;;;;13.50;8.98;;;;;;;;;;4999537;28;20912;-83
2023/04/23 02:31:00;;;;;;;12.32;9.13;;;;;;;;;;4995145;28;20046;-84
2023/04/23 02:33:25;;;;;;;14.02;9.95;;;;;;;;;;4998715;28;20037;-84
2023/04/23 02:35:51;;;;;;;13.73;8.63;;;;;;;;;;5011721;28;20239;-83
2023/04/23 02:38:16;;;;;;;13.85;8.95;;;;;;;;;;4987520;28;20389;-83
2023/04/23 02:40:42;;;;;;;15.02;9.40;;;;;;;;;;4998542;28;20041;-83
2023/04/23 02:43:07;;;;;;;14.10;9.27;;;;;;;;;;4995073;28;20462;-84
2023/04/23 02:45:33;;;;;;;13.73;9.32;;;;;;;;;;4984826;28;20033;-83
2023/04/23 02:47:58;;;;;;;13.70;9.30;;;;;;;;;;5013045;28;20049;-83
2023/04/23 02:50:24;;;;;;;14.55;9.65;;;;;;;;;;4999325;28;20402;-83
2023/04/23 02:52:49;;;;;;;13.43;9.68;;;;;;;;;;5012655;28;20045;-83
2023/04/23 02:55:15;;;;;;;13.05;9.23;;;;;;;;;;5012473;28;20037;-83
2023/04/23 02:57:41;;;;;;;15.30;10.10;;;;;;;;;;5012251;28;20044;-82
2023/04/23 03:00:07;;;;;;;12.32;8.88;;;;;;;;;;5013818;28;20045;-83
2023/04/23 03:02:32;;;;;;;12.88;9.00;;;;;;;;;;4994820;28;20033;-84
2023/04/23 03:04:58;;;;;;;13.25;9.25;;;;;;;;;;4999893;28;20036;-83
2023/04/23 03:07:23;;;;;;;13.13;8.45;;;;;;;;;;5011089;28;20440;-83
2023/04/23 03:09:48;;;;;;;14.35;9.05;;;;;;;;;;4997897;28;20026;-82
2023/04/23 03:12:14;;;;;;;14.07;9.35;;;;;;;;;;5001225;28;20490;-84
2023/04/23 03:14:39;;;;;;;13.77;9.07;;;;;;;;;;4988112;28;20465;-83
2023/04/23 03:17:05;;;;;;;13.52;8.98;;;;;;;;;;4998255;28;20030;-83
2023/04/23 03:19:30;;;;;;;10.93;8.20;;;;;;;;;;5010999;28;20038;-83
2023/04/23 03:21:56;;;;;;;13.77;8.98;;;;;;;;;;5013708;28;20037;-82
2023/04/23 03:24:21;;;;;;;11.98;8.35;;;;;;;;;;4995357;28;20046;-83
2023/04/23 03:26:47;;;;;;;12.93;8.95;;;;;;;;;;4997418;28;20037;-82
2023/04/23 03:29:12;;;;;;;12.07;9.02;;;;;;;;;;4982000;28;20041;-82
2023/04/23 03:31:37;;;;;;;12.60;8.65;;;;;;;;;;4995923;28;20060;-82
2023/04/23 03:34:03;;;;;;;13.38;9.55;;;;;;;;;;5005201;28;20050;-83
2023/04/23 03:36:28;;;;;;;13.05;8.80;;;;;;;;;;4999013;28;20030;-83
2023/04/23 03:38:53;;;;;;;12.23;8.85;;;;;;;;;;4994617;28;20034;-82
2023/04/23 03:41:19;;;;;;;12.60;8.52;;;;;;;;;;4995649;28;20091;-84
2023/04/23 03:43:44;;;;;;;11.80;8.73;;;;;;;;;;4998221;28;20484;-83
2023/04/23 03:46:10;;;;;;;12.82;8.25;;;;;;;;;;5011953;28;20134;-81
2023/04/23 03:48:35;;;;;;;12.20;8.40;;;;;;;;;;4994852;28;20102;-82
2023/04/23 03:51:00;;;;;;;13.65;8.98;;;;;;;;;;4993391;28;20604;-82
2023/04/23 03:53:26;;;;;;;11.57;8.10;;;;;;;;;;4998661;28;20038;-82
2023/04/23 03:55:51;;;;;;;13.02;8.52;;;;;;;;;;4985485;28;20037;-83
2023/04/23 03:58:17;;;;;;;13.45;8.80;;;;;;;;;;4997763;28;20568;-83
2023/04/23 04:00:42;;;;;;;11.57;8.07;;;;;;;;;;4994222;28;20036;-82
2023/04/23 04:03:07;;;;;;;12.02;8.43;;;;;;;;;;5013433;28;20061;-83
2023/04/23 04:05:34;;;;;;;13.55;9.15;;;;;;;;;;4992544;28;20052;-84
2023/04/23 04:08:00;;;;;;;11.63;8.60;;;;;;;;;;5011288;28;20046;-84
2023/04/23 04:10:26;;;;;;;11.68;8.43;;;;;;;;;;4995148;28;20490;-84
2023/04/23 04:12:51;;;;;;;10.80;7.75;;;;;;;;;;4986888;28;20096;-84
2023/04/23 04:15:19;;;;;;;11.98;7.90;;;;;;;;;;4992375;28;20034;-83
2023/04/23 04:17:44;;;;;;;11.13;7.55;;;;;;;;;;5009939;28;20074;-84
2023/04/23 04:20:10;;;;;;;10.77;7.90;;;;;;;;;;5010193;28;20349;-83
2023/04/23 04:22:36;;;;;;;9.98;7.45;;;;;;;;;;5000073;28;20124;-86
2023/04/23 04:25:01;;;;;;;12.50;7.72;;;;;;;;;;5009574;28;20103;-86
2023/04/23 04:27:26;;;;;;;11.25;7.32;;;;;;;;;;4995066;28;20034;-85
2023/04/23 04:29:52;;;;;;;10.98;7.60;;;;;;;;;;5009644;28;20411;-84
2023/04/23 04:32:18;;;;;;;10.45;7.32;;;;;;;;;;5009611;28;20033;-85
2023/04/23 04:34:43;;;;;;;11.60;6.95;;;;;;;;;;4996230;28;20038;-83
2023/04/23 04:37:10;;;;;;;9.93;7.15;;;;;;;;;;4992900;28;20057;-85
2023/04/23 04:39:36;;;;;;;13.10;7.00;;;;;;;;;;5009226;28;20030;-83
2023/04/23 04:42:01;;;;;;;12.13;7.35;;;;;;;;;;5010901;28;20441;-83
2023/04/23 04:44:28;;;;;;;11.38;7.18;;;;;;;;;;5009827;28;20157;-85
2023/04/23 04:46:53;;;;;;;11.50;7.68;;;;;;;;;;4994752;28;20517;-86
2023/04/23 04:49:18;;;;;;;10.93;7.80;;;;;;;;;;5001461;28;20048;-84
2023/04/23 04:51:44;;;;;;;11.95;7.32;;;;;;;;;;5010456;28;20482;-84
2023/04/23 04:54:09;;;;;;;10.90;8.00;;;;;;;;;;4995233;28;20052;-85
2023/04/23 04:56:35;;;;;;;11.57;7.10;;;;;;;;;;4998706;28;20494;-84
2023/04/23 04:59:00;;;;;;;10.18;7.75;;;;;;;;;;5013957;28;20061;-85
2023/04/23 05:01:27;;;;;;;13.68;6.72;;;;;;;;;;5014379;28;20041;-84
2023/04/23 05:03:53;;;;;;;11.00;7.07;;;;;;;;;;5013859;28;20048;-84
2023/04/23 05:06:19;;;;;;;10.77;6.57;;;;;;;;;;4996045;28;20108;-84
2023/04/23 05:08:47;;;;;;;12.20;7.40;;;;;;;;;;5014614;28;20092;-85
2023/04/23 05:11:15;;;;;;;;;;;;;;;;;;5000123;28;20096;-84
2023/04/23 05:13:41;;;;;;;10.35;6.82;;;;;;;;;;5014211;28;19928;-84
2023/04/23 05:16:07;;;;;;;10.20;7.05;;;;;;;;;;5012453;28;20555;-84
2023/04/23 05:18:32;;;;;;;10.13;7.05;;;;;;;;;;4997543;28;20033;-83
2023/04/23 05:20:57;;;;;;;10.88;7.50;;;;;;;;;;5013195;28;20087;-83
2023/04/23 05:23:23;;;;;;;10.40;7.43;;;;;;;;;;4979859;28;20041;-84
2023/04/23 05:25:50;;;;;;;9.82;6.68;;;;;;;;;;5000703;28;20121;-84
2023/04/23 05:28:16;;;;;;;10.00;7.03;;;;;;;;;;4994400;28;20046;-84
2023/04/23 05:30:42;;;;;;;10.50;7.07;;;;;;;;;;4994345;28;20045;-83
2023/04/23 05:33:07;;;;;;;10.05;7.05;;;;;;;;;;4994378;28;20041;-84
2023/04/23 05:35:32;;;;;;;10.48;6.45;;;;;;;;;;4993121;28;20429;-83
2023/04/23 05:37:58;;;;;;;8.77;6.50;;;;;;;;;;4995555;28;20048;-84
2023/04/23 05:40:24;;;;;;;10.15;6.75;;;;;;;;;;4993424;28;20398;-83
2023/04/23 05:42:49;;;;;;;10.50;6.85;;;;;;;;;;4993484;28;20033;-83
2023/04/23 05:45:15;;;;;;;9.80;6.32;;;;;;;;;;4995894;28;20042;-83
2023/04/23 05:47:40;;;;;;;9.77;6.88;;;;;;;;;;4995070;28;20037;-83
2023/04/23 05:50:06;;;;;;;11.00;7.53;;;;;;;;;;4993984;28;20052;-83
2023/04/23 05:52:34;;;;;;;11.13;6.75;;;;;;;;;;4991701;28;20034;-83
2023/04/23 05:55:00;;;;;;;9.82;6.18;;;;;;;;;;4992141;28;20452;-83
2023/04/23 05:57:25;;;;;;;8.90;6.25;;;;;;;;;;4992517;28;20041;-83
2023/04/23 05:59:50;;;;;;;10.77;7.28;;;;;;;;;;4992858;28;20516;-84
2023/04/23 06:02:16;;;;;;;9.80;6.65;;;;;;;;;;4993172;28;20595;-83
2023/04/23 06:04:41;;;;;;;9.73;6.05;;;;;;;;;;4993022;28;20046;-82
2023/04/23 06:07:07;;;;;;;9.95;6.55;;;;;;;;;;4994067;28;20041;-83
2023/04/23 06:09:32;;;;;;;9.23;6.40;;;;;;;;;;4993855;28;20038;-83
2023/04/23 06:11:57;;;;;;;9.40;6.35;;;;;;;;;;4993589;28;20041;-84
2023/04/23 06:14:23;;;;;;;8.15;6.00;;;;;;;;;;4990060;28;20033;-83
2023/04/23 06:16:48;;;;;;;9.55;6.43;;;;;;;;;;4993866;28;20037;-84
2023/04/23 06:19:14;;;;;;;8.88;5.80;;;;;;;;;;4984967;28;20034;-82
2023/04/23 06:21:39;;;;;;;9.63;5.85;;;;;;;;;;4989664;28;20038;-83
2023/04/23 06:24:06;;;;;;;10.32;5.72;;;;;;;;;;4991297;28;20092;-83
2023/04/23 06:26:31;;;;;;;8.32;5.65;;;;;;;;;;4982759;28;20529;-82
2023/04/23 06:28:57;;;;;;;9.75;5.55;;;;;;;;;;4990853;28;20035;-82
2023/04/23 06:31:22;;;;;;;8.88;6.38;;;;;;;;;;4991736;28;20121;-82
2023/04/23 06:33:47;;;;;;;8.77;5.47;;;;;;;;;;4990026;28;20058;-83
2023/04/23 06:36:13;;;;;;;8.35;5.70;;;;;;;;;;4991119;28;20040;-82
2023/04/23 06:38:39;;;;;;;8.95;5.35;;;;;;;;;;4991967;28;20522;-82
2023/04/23 06:41:04;;;;;;;9.57;5.60;;;;;;;;;;4991260;28;20090;-82
2023/04/23 06:43:30;;;;;;;7.45;5.22;;;;;;;;;;4992679;28;22547;-83
2023/04/23 06:45:55;;;;;;;9.20;5.97;;;;;;;;;;4991407;28;20041;-84
2023/04/23 06:48:21;;;;;;;8.60;5.28;;;;;;;;;;4977540;28;20042;-83
2023/04/23 06:50:47;;;;;;;8.70;5.70;;;;;;;;;;4991017;28;20133;-83
2023/04/23 06:53:13;;;;;;;9.00;5.60;;;;;;;;;;4994112;28;20121;-83
2023/04/23 06:55:38;;;;;;;8.13;5.82;;;;;;;;;;4992824;28;20125;-83
2023/04/23 06:58:06;;;;;;;8.50;5.90;;;;;;;;;;4990466;28;20037;-84
2023/04/23 07:00:31;;;;;;;7.93;5.80;;;;;;;;;;4991923;28;20058;-84
2023/04/23 07:02:57;;;;;;;8.90;5.47;;;;;;;;;;4976173;28;20120;-84
2023/04/23 07:05:22;;;;;;;12.07;6.50;;;;;;;;;;4999162;28;20035;-83
2023/04/23 07:07:48;;;;;;;10.48;5.88;;;;;;;;;;4984831;28;20037;-84
2023/04/23 07:10:13;;;;;;;9.07;6.25;;;;;;;;;;4999688;28;20093;-84
2023/04/23 07:12:40;;;;;;;8.27;5.93;;;;;;;;;;4994592;28;20041;-85
2023/04/23 07:15:06;;;;;;;10.23;6.57;;;;;;;;;;4990106;28;20050;-84
2023/04/23 07:17:32;;;;;;;11.90;6.63;;;;;;;;;;4990600;28;20042;-84
2023/04/23 07:19:57;;;;;;;11.90;7.25;;;;;;;;;;4989268;28;20034;-85
2023/04/23 07:22:24;;;;;;;10.35;6.88;;;;;;;;;;4974239;28;20034;-84
2023/04/23 07:24:50;;;;;;;10.30;6.72;;;;;;;;;;5001319;28;20398;-83
2023/04/23 07:27:15;;;;;;;9.20;6.10;;;;;;;;;;4977057;28;20036;-83
2023/04/23 07:29:41;;;;;;;9.55;5.88;;;;;;;;;;5011774;28;20033;-83
2023/04/23 07:32:06;;;;;;;11.45;6.93;;;;;;;;;;4997336;28;20036;-84
2023/04/23 07:34:32;;;;;;;9.60;6.05;;;;;;;;;;5011977;28;20041;-84
2023/04/23 07:36:57;;;;;;;10.10;6.55;;;;;;;;;;4993938;28;20034;-84
2023/04/23 07:39:23;;;;;;;8.88;6.28;;;;;;;;;;4997122;28;20046;-85
2023/04/23 07:41:48;;;;;;;11.73;7.07;;;;;;;;;;4986629;28;20030;-84
2023/04/23 07:44:14;;;;;;;9.98;6.90;;;;;;;;;;5011935;28;20441;-83
2023/04/23 07:46:39;;;;;;;9.38;6.70;;;;;;;;;;4980074;28;20034;-83
2023/04/23 07:49:06;;;;;;;10.63;6.43;;;;;;;;;;5010523;28;20059;-84
2023/04/23 07:51:32;;;;;;;10.95;6.43;;;;;;;;;;5010334;28;20145;-83
2023/04/23 07:53:57;;;;;;;10.07;7.25;;;;;;;;;;5011460;28;20037;-84
2023/04/23 07:56:23;;;;;;;11.82;7.03;;;;;;;;;;5008962;28;20057;-84
2023/04/23 07:58:49;;;;;;;11.45;6.80;;;;;;;;;;5011419;28;20117;-84
2023/04/23 08:01:14;;;;;;;11.75;6.93;;;;;;;;;;4992579;28;20029;-83
2023/04/23 08:03:40;;;;;;;11.30;6.55;;;;;;;;;;4993508;28;20025;-83
2023/04/23 08:06:05;;;;;;;11.32;7.10;;;;;;;;;;4976213;28;20827;-84
2023/04/23 08:08:31;;;;;;;9.70;6.80;;;;;;;;;;4991678;28;20635;-83
2023/04/23 08:10:57;;;;;;;9.68;6.50;;;;;;;;;;5008960;28;20695;-84
2023/04/23 08:13:22;;;;;;;10.20;6.47;;;;;;;;;;5002945;28;20578;-84
2023/04/23 08:15:48;;;;;;;10.27;6.78;;;;;;;;;;4975963;28;20120;-83
2023/04/23 08:18:14;;;;;;;11.32;7.40;;;;;;;;;;4995822;28;20030;-84
2023/04/23 08:20:39;;;;;;;10.00;6.53;;;;;;;;;;4992842;28;20038;-84
2023/04/23 08:23:05;;;;;;;11.95;7.32;;;;;;;;;;4998491;28;20069;-81
2023/04/23 08:25:31;;;;;;;8.55;5.40;;;;;;;;;;4998794;28;20042;-81
2023/04/23 08:27:57;;;;;;;11.82;6.72;;;;;;;;;;4997260;28;20542;-81
2023/04/23 08:30:22;;;;;;;7.38;5.40;;;;;;;;;;4993553;28;20045;-83
2023/04/23 08:32:50;;;;;;;9.88;5.63;;;;;;;;;;4988025;28;20440;-83
2023/04/23 08:35:15;;;;;;;8.07;5.25;;;;;;;;;;4977184;28;20401;-83
2023/04/23 08:37:41;;;;;;;7.93;4.82;;;;;;;;;;5014522;28;20034;-83
2023/04/23 08:40:07;;;;;;;9.02;5.40;;;;;;;;;;5011815;28;20046;-83
2023/04/23 08:42:55;;;;;;;6.53;4.53;;;;;;;;;;4986438;28;20033;-83
2023/04/23 08:45:22;;;;;;;7.30;4.57;;;;;;;;;;4998990;28;20109;-83
2023/04/23 08:47:47;;;;;;;7.25;5.00;;;;;;;;;;4989616;28;20037;-82
2023/04/23 08:50:17;;;;;;;8.27;5.13;;;;;;;;;;4993066;28;20030;-82
2023/04/23 08:52:49;;;;;;;9.65;5.00;;;;;;;;;;5012541;28;20034;-82
2023/04/23 08:55:15;;;;;;;9.43;5.40;;;;;;;;;;5012870;28;20440;-82
2023/04/23 08:57:41;;;;;;;7.20;4.82;;;;;;;;;;4973211;28;20486;-83
2023/04/23 09:00:11;;;;;;;7.75;4.97;;;;;;;;;;4992177;28;20058;-83
2023/04/23 09:02:39;;;;;;;8.23;5.38;;;;;;;;;;4998765;28;20441;-82
2023/04/23 09:05:05;;;;;;;8.82;5.75;;;;;;;;;;4995676;28;20064;-82
2023/04/23 09:07:30;;;;;;;8.73;5.25;;;;;;;;;;5000475;28;20422;-82
2023/04/23 09:09:56;;;;;;;7.47;5.45;;;;;;;;;;4984874;28;20058;-83
2023/04/23 09:12:21;;;;;;;8.93;5.50;;;;;;;;;;4992588;28;20030;-83
2023/04/23 09:14:48;;;;;;;7.97;5.13;;;;;;;;;;4994464;28;20127;-83
2023/04/23 09:17:14;;;;;;;8.73;5.43;;;;;;;;;;5009632;28;20037;-82
2023/04/23 09:19:40;;;;;;;6.85;4.68;;;;;;;;;;5013623;28;20044;-81
2023/04/23 09:22:06;;;;;;;7.50;4.95;;;;;;;;;;4983365;28;20481;-81
2023/04/23 09:26:24;;;;;;;7.10;4.88;;;;;;;;;;5041800;27;20735;-82
2023/04/23 09:28:52;;;;;;;8.30;4.78;;;;;;;;;;5028894;28;20045;-80
2023/04/23 09:31:22;;;;;;;5.10;3.55;;;;;;;;;;5037170;28;20123;-80
2023/04/23 09:33:52;;;;;;;6.30;3.58;;;;;;;;;;5049515;28;20039;-81
2023/04/23 09:36:21;;;;;;;6.72;3.67;;;;;;;;;;5047283;28;20820;-80
2023/04/23 09:38:47;;;;;;;5.07;3.25;;;;;;;;;;5047786;28;20480;-80
2023/04/23 09:41:23;;;;;;;4.75;2.75;;;;;;;;;;5080699;28;20029;-79
2023/04/23 09:43:49;;;;;;;4.55;2.50;;;;;;;;;;5062847;28;20523;-80
2023/04/23 09:46:14;;;;;;;4.78;2.45;;;;;;;;;;5048725;28;20043;-81
2023/04/23 09:48:43;;;;;;;4.70;2.80;;;;;;;;;;5046358;28;20180;-80
2023/04/23 09:51:12;;;;;;;4.88;2.83;;;;;;;;;;5047659;28;20033;-80
2023/04/23 09:53:44;;;;;;;4.93;2.80;;;;;;;;;;5049350;28;20056;-80
2023/04/23 09:56:10;;;;;;;5.70;3.15;;;;;;;;;;5066012;28;20039;-79
2023/04/23 09:58:36;;;;;;;5.53;2.83;;;;;;;;;;5066547;28;20029;-80
2023/04/23 10:01:08;;;;;;;5.80;3.45;;;;;;;;;;5064981;28;20120;-80
2023/04/23 10:03:34;;;;;;;5.72;3.70;;;;;;;;;;5065697;28;20039;-79
2023/04/23 10:06:00;;;;;;;6.00;3.33;;;;;;;;;;5056817;28;20025;-81
2023/04/23 10:08:26;;;;;;;6.05;3.25;;;;;;;;;;5068006;28;20459;-78
2023/04/23 10:10:51;;;;;;;8.32;4.05;;;;;;;;;;5064986;28;20492;-81
2023/04/23 10:13:17;;;;;;;5.82;3.58;;;;;;;;;;5051647;28;20090;-82
2023/04/23 10:16:05;;;;;;;5.72;3.75;;;;;;;;;;5059014;28;20047;-80
2023/04/23 10:18:31;;;;;;;8.77;5.07;;;;;;;;;;5011451;28;20046;-87
2023/04/23 10:20:57;;;;;;;9.35;5.40;;;;;;;;;;4989985;28;20068;-84
2023/04/23 10:23:23;;;;;;;10.50;6.20;;;;;;;;;;5002047;28;20042;-80
2023/04/23 10:25:50;;;;;;;10.60;6.13;;;;;;;;;;4988909;28;20728;-80
2023/04/23 10:28:16;;;;;;;10.63;6.30;;;;;;;;;;4989269;28;20038;-81
2023/04/23 10:30:43;;;;;;;12.10;7.25;;;;;;;;;;4985553;28;20047;-79
2023/04/23 10:33:10;;;;;;;9.77;6.40;;;;;;;;;;5007571;28;21097;-80
2023/04/23 10:35:36;;;;;;;11.05;6.75;;;;;;;;;;4991738;28;20034;-80
2023/04/23 10:38:01;;;;;;;10.85;6.57;;;;;;;;;;4961753;28;20053;-80
2023/04/23 10:40:29;;;;;;;10.73;6.88;;;;;;;;;;4982823;28;20048;-80
2023/04/23 10:42:55;;;;;;;9.55;6.03;;;;;;;;;;4992545;28;20042;-80
2023/04/23 10:45:20;;;;;;;11.20;6.53;;;;;;;;;;4984171;28;20947;-80
2023/04/23 10:47:46;;;;;;;9.77;5.97;;;;;;;;;;4983878;28;20049;-80
2023/04/23 10:50:19;;;;;;;10.68;6.65;;;;;;;;;;4975177;28;20049;-81
2023/04/23 10:52:48;;;;;;;10.77;6.85;;;;;;;;;;4993045;28;20975;-80
2023/04/23 10:55:18;;;;;;;11.70;6.32;;;;;;;;;;5009169;28;20033;-80
2023/04/23 10:58:01;;;;;;;10.70;6.97;;;;;;;;;;5042684;28;20041;-80
2023/04/23 11:00:27;;;;;;;10.05;5.95;;;;;;;;;;5042110;28;20045;-80
2023/04/23 11:02:53;;;;;;;9.85;6.20;;;;;;;;;;5052264;28;20476;-80
2023/04/23 11:05:21;;;;;;;10.75;6.18;;;;;;;;;;5049802;28;20079;-80
2023/04/23 11:08:06;;;;;;;9.18;5.72;;;;;;;;;;5053393;28;20120;-80
2023/04/23 11:10:32;;;;;;;10.57;6.00;;;;;;;;;;5049819;28;20099;-79
2023/04/23 11:13:27;;;;;;;8.80;5.72;;;;;;;;;;5054412;28;20480;-80
2023/04/23 11:16:15;;;;;;;10.88;6.10;;;;;;;;;;5053085;28;20037;-80
2023/04/23 11:19:03;;;;;;;10.18;5.80;;;;;;;;;;5034326;28;20064;-78
2023/04/23 11:21:57;;;;;;;8.68;5.30;;;;;;;;;;5051394;28;20144;-79
2023/04/23 11:24:27;;;;;;;7.63;5.13;;;;;;;;;;5044468;28;20106;-80
2023/04/23 11:26:53;;;;;;;9.40;5.55;;;;;;;;;;5051221;28;20033;-80
2023/04/23 11:29:21;;;;;;;8.90;5.40;;;;;;;;;;5050428;28;20047;-80
2023/04/23 11:31:47;;;;;;;9.10;5.45;;;;;;;;;;5033649;28;20037;-80
2023/04/23 11:34:13;;;;;;;8.15;5.15;;;;;;;;;;5038523;28;20392;-79
2023/04/23 11:36:38;;;;;;;9.27;5.60;;;;;;;;;;5045110;28;20036;-78
2023/04/23 11:39:05;;;;;;;9.88;5.75;;;;;;;;;;5053933;28;20119;-80
2023/04/23 11:41:31;;;;;;;8.53;5.03;;;;;;;;;;5037378;28;20051;-79
2023/04/23 11:43:57;;;;;;;8.55;5.78;;;;;;;;;;5059640;28;21114;-79
2023/04/23 11:46:23;;;;;;;7.63;5.03;;;;;;;;;;5034004;28;20052;-81
2023/04/23 11:48:48;;;;;;;6.75;4.10;;;;;;;;;;5051834;28;20032;-79
2023/04/23 11:51:14;;;;;;;7.30;4.03;;;;;;;;;;5058572;28;20036;-81
2023/04/23 11:53:47;;;;;;;5.82;3.63;;;;;;;;;;5050371;28;20067;-79
2023/04/23 11:56:15;;;;;;;4.65;2.60;;;;;;;;;;5051619;28;20400;-79
2023/04/23 11:58:40;;;;;;;3.50;1.95;;;;;;;;;;5066984;28;20040;-80
2023/04/23 12:01:06;;;;;;;3.80;1.98;;;;;;;;;;5058405;28;20102;-79
2023/04/23 12:03:32;;;;;;;3.42;1.52;;;;;;;;;;5052517;28;20152;-80
2023/04/23 12:05:58;;;;;;;4.07;2.10;;;;;;;;;;5043178;28;20108;-80
2023/04/23 12:08:23;;;;;;;3.53;1.80;;;;;;;;;;5037217;28;20036;-80
2023/04/23 12:10:52;;;;;;;3.95;1.48;;;;;;;;;;5050181;28;20025;-81
2023/04/23 12:13:21;;;;;;;2.85;1.48;;;;;;;;;;5034140;28;20508;-78
2023/04/23 12:15:48;;;;;;;2.75;1.50;;;;;;;;;;5038956;28;20033;-80
2023/04/23 12:18:14;;;;;;;2.10;1.00;;;;;;;;;;5051307;28;20066;-79
2023/04/23 12:20:40;;;;;;;2.55;1.10;;;;;;;;;;5053527;28;20033;-79
2023/04/23 12:23:05;;;;;;;2.38;1.27;;;;;;;;;;5043468;28;20086;-79
2023/04/23 12:25:34;;;;;;;2.95;1.23;;;;;;;;;;5031596;28;20036;-80
2023/04/23 12:28:01;;;;;;;2.50;1.20;;;;;;;;;;5037217;28;20459;-79
2023/04/23 12:30:31;;;;;;;2.83;1.25;;;;;;;;;;5066622;28;20528;-77
2023/04/23 12:33:00;;;;;;;2.55;1.10;;;;;;;;;;5033438;28;20115;-78
2023/04/23 12:35:40;;;;;;;2.15;1.00;;;;;;;;;;5057681;28;20110;-78
2023/04/23 12:38:05;;;;;;;2.05;0.90;;;;;;;;;;5050721;28;20040;-78
2023/04/23 12:40:31;;;;;;;2.72;1.15;;;;;;;;;;5049974;28;20538;-79
2023/04/23 12:42:56;;;;;;;2.42;1.13;;;;;;;;;;5051547;28;20028;-78
2023/04/23 12:45:22;;;;;;;2.20;1.20;;;;;;;;;;5049168;28;20051;-78
2023/04/23 12:47:47;;;;;;;2.85;1.10;;;;;;;;;;5047793;28;20393;-78
2023/04/23 12:50:13;;;;;;;3.75;1.20;;;;;;;;;;5050837;28;20085;-80
2023/04/23 12:52:38;;;;;;;2.78;1.35;;;;;;;;;;5034917;28;20040;-79
2023/04/23 12:55:05;;;;;;;2.50;1.10;;;;;;;;;;5050297;28;20036;-78
2023/04/23 12:57:30;;;;;;;2.40;1.23;;;;;;;;;;5049299;28;20496;-80
2023/04/23 12:59:55;;;;;;;2.85;1.20;;;;;;;;;;5049167;28;20067;-80
2023/04/23 13:02:21;;;;;;;3.25;1.00;;;;;;;;;;5038273;28;20064;-80
2023/04/23 13:04:47;;;;;;;2.33;1.00;;;;;;;;;;5051187;28;20124;-79
2023/04/23 13:07:13;;;;;;;2.70;1.30;;;;;;;;;;5051186;28;20669;-80
2023/04/23 13:09:38;;;;;;;3.13;1.40;;;;;;;;;;5056953;28;20111;-79
2023/04/23 13:12:03;;;;;;;3.15;1.27;;;;;;;;;;5039638;28;20036;-80
2023/04/23 13:14:30;;;;;;;3.50;1.75;;;;;;;;;;5053568;28;20127;-79
2023/04/23 13:16:56;;;;;;;2.83;1.33;;;;;;;;;;5051035;28;20422;-79
2023/04/23 13:19:22;;;;;;;4.10;1.70;;;;;;;;;;5049866;28;20040;-80
2023/04/23 13:21:47;;;;;;;2.72;1.52;;;;;;;;;;5049736;28;20441;-80
2023/04/23 13:24:13;;;;;;;3.08;1.58;;;;;;;;;;5040986;28;20105;-80
2023/04/23 13:26:38;;;;;;;4.25;1.77;;;;;;;;;;5050982;28;20040;-78
2023/04/23 13:29:04;;;;;;;3.70;1.60;;;;;;;;;;5050254;28;20036;-78
2023/04/23 13:31:30;;;;;;;3.53;1.67;;;;;;;;;;5050468;28;20153;-79
2023/04/23 13:34:16;;;;;;;3.63;1.75;;;;;;;;;;5040366;28;20029;-78
2023/04/23 13:36:41;;;;;;;3.33;1.83;;;;;;;;;;4986568;28;20038;-79
2023/04/23 13:39:07;;;;;;;3.35;1.45;;;;;;;;;;4991283;28;20041;-77
2023/04/23 13:41:33;;;;;;;2.78;1.20;;;;;;;;;;4974153;28;20038;-78
2023/04/23 13:43:59;;;;;;;3.00;1.48;;;;;;;;;;4965287;28;20560;-78
2023/04/23 13:46:25;;;;;;;2.55;1.33;;;;;;;;;;4966248;28;20030;-78
2023/04/23 13:48:52;;;;;;;2.65;1.27;;;;;;;;;;4989970;28;20046;-78
2023/04/23 13:51:17;;;;;;;2.70;1.27;;;;;;;;;;4963896;28;20647;-77
2023/04/23 13:53:43;;;;;;;3.17;1.65;;;;;;;;;;4969850;28;20125;-78
2023/04/23 13:56:08;;;;;;;2.97;1.50;;;;;;;;;;4986994;28;20050;-78
2023/04/23 13:58:33;;;;;;;3.08;1.30;;;;;;;;;;4985970;28;20053;-79
2023/04/23 14:00:59;;;;;;;2.95;1.42;;;;;;;;;;4989562;28;20045;-78
2023/04/23 14:03:24;;;;;;;2.67;1.15;;;;;;;;;;4987539;28;20069;-78
2023/04/23 14:05:50;;;;;;;2.72;1.30;;;;;;;;;;4969741;28;20033;-78
2023/04/23 14:08:15;;;;;;;4.05;1.45;;;;;;;;;;4980755;28;20521;-79
2023/04/23 14:10:41;;;;;;;2.78;1.40;;;;;;;;;;4984649;28;20060;-79
2023/04/23 14:13:06;;;;;;;2.30;1.10;;;;;;;;;;4995956;28;20049;-78
2023/04/23 14:15:34;;;;;;;3.60;1.35;;;;;;;;;;5052687;28;20040;-79
2023/04/23 14:17:59;;;;;;;3.58;1.42;;;;;;;;;;5038881;28;20495;-78
2023/04/23 14:20:24;;;;;;;2.83;1.38;;;;;;;;;;5034111;28;20041;-79
2023/04/23 14:22:55;;;;;;;3.50;1.30;;;;;;;;;;5052860;28;20702;-79
2023/04/23 14:25:29;;;;;;;3.15;1.30;;;;;;;;;;5059519;28;20048;-79
2023/04/23 14:27:56;;;;;;;3.40;1.55;;;;;;;;;;5060795;28;20033;-78
2023/04/23 14:30:23;;;;;;;2.63;1.50;;;;;;;;;;5048175;28;20041;-79
2023/04/23 14:32:49;;;;;;;2.72;1.40;;;;;;;;;;5045504;28;20028;-79
2023/04/23 14:35:15;;;;;;;2.78;1.40;;;;;;;;;;5053963;28;20043;-80
2023/04/23 14:37:44;;;;;;;2.78;1.20;;;;;;;;;;5052110;28;20067;-80
2023/04/23 14:40:18;;;;;;;2.95;1.20;;;;;;;;;;5050940;28;20146;-79